Terminal Aerodrome Forecast
Issued by NWS

Home | Current Version | Previous Version | Graphics & Text | Print | Product List | Glossary On
Versions: 1 2 3 4 5 6 7 8 9 10 11 12 13 14 15 16 17 18 19 20 21
000
FTUS43 KTOP 181740
TAFMHK
TAF
KMHK 181740Z 1818/1918 19023G40KT P6SM SCT250
     FM190100 19018G29KT P6SM BKN040 WS014/20050KT
     FM190600 19016G24KT P6SM BKN012 WS014/21055KT
     FM190900 20015G23KT P6SM -DZ VCSH BKN008 WS014/22055KT
     FM191300 23014G22KT P6SM BKN008=

USA.gov is the U.S. government's official web portal to all federal, state and local government web resources and services.